Sealand New York — 9HA3394 — position and weather

sailwx.info

Track history (hours):
 
Tides and Currents Weather Stations Pressure Air Temp Water Temp Dewpoint Dewpoint Depression Visibility Wind Speed Wind Dir Waves Ship Positions

Sealand New York

Last reported at 2018-Apr-23 11:30 UTC. Time now 2018-Apr-23 11:48 UTC.
Position N 43°11' E 007°21'.

Length 304 m; draft 12.3 m.

Type: Ship (hazmat cat A). MMSI: 229544000.

Date/timePositionNaut miles runAvg speedWind from/ knotsBaromVisibWave heightAir tempDewpointWater temp
2018-Apr-23 11:30N 43°11' E 007°21'1018.9
2018-Apr-23 10:59N 43°18' E 007°32'1018.9
2018-Apr-23 10:28N 43°24' E 007°42'919.2
2018-Apr-23 10:00N 43°31' E 007°50'1019.4
2018-Apr-23 09:30N 43°38' E 007°59'1020.2
2018-Apr-23 09:00N 43°46' E 008°08'1020.3
2018-Apr-23 08:30N 43°53' E 008°17'1020.2
2018-Apr-23 08:00N 44°01' E 008°26'1020.2
2018-Apr-23 07:30N 44°09' E 008°35'1019.5
2018-Apr-23 07:00N 44°18' E 008°40'815.4
2018-Apr-23 06:30N 44°25' E 008°45'1 2.8
2018-Apr-23 05:59N 44°25' E 008°47'0 0.0
2018-Apr-23 05:29N 44°25' E 008°47'0 0.0
2018-Apr-23 04:59N 44°25' E 008°47'0 0.0
2018-Apr-23 04:29N 44°25' E 008°47'0 0.0
2018-Apr-23 03:59N 44°25' E 008°47'0 0.0
2018-Apr-23 03:29N 44°25' E 008°47'0 0.0
2018-Apr-23 02:59N 44°25' E 008°47'0 0.0
2018-Apr-23 02:29N 44°25' E 008°47'0 0.0
2018-Apr-23 01:59N 44°25' E 008°47'0 0.0
2018-Apr-23 01:29N 44°25' E 008°47'0 0.0
2018-Apr-23 00:59N 44°25' E 008°47'0 0.0
2018-Apr-23 00:29N 44°25' E 008°47'0 0.0
2018-Apr-22 23:59N 44°25' E 008°47'0 0.0
2018-Apr-22 23:29N 44°25' E 008°47'0 0.0
2018-Apr-22 22:59N 44°25' E 008°47'0 0.0
2018-Apr-22 22:29N 44°25' E 008°47'0 0.0
2018-Apr-22 21:59N 44°25' E 008°47'0 0.0
2018-Apr-22 21:29N 44°25' E 008°47'0 0.0
2018-Apr-22 20:59N 44°25' E 008°47'0 0.0
2018-Apr-22 20:29N 44°25' E 008°47'0 0.0
2018-Apr-22 19:59N 44°25' E 008°47'0 0.0
2018-Apr-22 19:29N 44°25' E 008°47'0 0.0
2018-Apr-22 18:59N 44°25' E 008°47'0 0.0
2018-Apr-22 18:26N 44°25' E 008°47'0 0.0
2018-Apr-22 17:59N 44°25' E 008°47'0 0.0
2018-Apr-22 17:29N 44°25' E 008°47'0 0.0
2018-Apr-22 16:59N 44°25' E 008°47'0 0.0
2018-Apr-22 16:29N 44°25' E 008°47'0 0.0
2018-Apr-22 15:59N 44°25' E 008°47'0 0.0
2018-Apr-22 15:29N 44°25' E 008°47'0 0.0
2018-Apr-22 14:59N 44°25' E 008°47'0 0.0
2018-Apr-22 14:29N 44°25' E 008°47'0 0.0
2018-Apr-22 13:59N 44°25' E 008°47'0 0.0
2018-Apr-22 13:29N 44°25' E 008°47'0 0.0
2018-Apr-22 12:59N 44°25' E 008°47'0 0.0
2018-Apr-22 12:29N 44°25' E 008°47'0 0.0
2018-Apr-22 11:59N 44°25' E 008°47'0 0.0
2018-Apr-22 11:29N 44°25' E 008°47'0 0.0
2018-Apr-22 10:59N 44°25' E 008°47'0 0.0
2018-Apr-22 10:29N 44°25' E 008°47'0 0.0
2018-Apr-22 09:59N 44°25' E 008°47'0 0.0
2018-Apr-22 09:29N 44°25' E 008°47'0 0.0
2018-Apr-22 08:59N 44°25' E 008°47'0 0.0
2018-Apr-22 08:29N 44°25' E 008°47'0 0.2
2018-Apr-22 08:00N 44°25' E 008°47'2 4.2
2018-Apr-22 07:30N 44°24' E 008°45'2 5.0
2018-Apr-22 07:00N 44°22' E 008°43'1 2.9
2018-Apr-22 06:30N 44°20' E 008°42'0 0.5
2018-Apr-22 06:00N 44°21' E 008°42'0 0.4
2018-Apr-22 05:30N 44°21' E 008°43'0 0.4
2018-Apr-22 05:00N 44°21' E 008°43'3 5.4
2018-Apr-22 04:30N 44°18' E 008°43'510.6
2018-Apr-22 04:00N 44°13' E 008°41'3 5.0
2018-Apr-22 03:30N 44°11' E 008°38'1 1.1
2018-Apr-22 03:00N 44°11' E 008°39'1 1.1
2018-Apr-22 02:30N 44°11' E 008°40'0 0.9
2018-Apr-22 02:00N 44°12' E 008°41'0 0.9
2018-Apr-22 01:30N 44°12' E 008°41'0 0.9
2018-Apr-22 01:00N 44°12' E 008°42'0 0.9
2018-Apr-22 00:30N 44°12' E 008°42'1 1.0
2018-Apr-22 00:00N 44°12' E 008°43'0 0.7
2018-Apr-21 23:30N 44°12' E 008°43'0 0.7
2018-Apr-21 23:00N 44°12' E 008°44'0 0.6
2018-Apr-21 22:30N 44°13' E 008°44'0 0.6
2018-Apr-21 22:00N 44°13' E 008°45'0 0.6
2018-Apr-21 21:30N 44°13' E 008°45'0 0.7
2018-Apr-21 21:00N 44°13' E 008°46'0 0.7
2018-Apr-21 20:30N 44°13' E 008°46'0 0.7
2018-Apr-21 20:00N 44°13' E 008°46'0 0.7
2018-Apr-21 19:30N 44°13' E 008°47'0 0.7
2018-Apr-21 19:00N 44°12' E 008°47'0 0.8
2018-Apr-21 18:30N 44°12' E 008°48'0 0.7
2018-Apr-21 18:01N 44°12' E 008°48'0 0.6
2018-Apr-21 17:31N 44°12' E 008°49'0 0.6
2018-Apr-21 17:01N 44°12' E 008°49'0 0.5
2018-Apr-21 16:30N 44°12' E 008°50'0 0.2
2018-Apr-21 16:01N 44°12' E 008°50'0 0.4
2018-Apr-21 15:30N 44°12' E 008°49'0 0.4
2018-Apr-21 15:00N 44°12' E 008°49'1 1.9
2018-Apr-21 14:31N 44°13' E 008°50'611.9
2018-Apr-21 14:00N 44°09' E 008°56'612.6
2018-Apr-21 13:30N 44°05' E 009°03'612.6
2018-Apr-21 13:00N 44°00' E 009°09'612.2
2018-Apr-21 12:30N 43°56' E 009°14'612.3
2018-Apr-21 12:01N 43°51' E 009°20'612.2
2018-Apr-21 11:30N 43°47' E 009°26'611.9
2018-Apr-21 11:01N 43°43' E 009°32'612.0
2018-Apr-21 10:31N 43°39' E 009°38'612.1
2018-Apr-21 10:01N 43°34' E 009°44'611.8
2018-Apr-21 09:30N 43°32' E 009°51'611.9
2018-Apr-21 09:00N 43°30' E 009°59'612.4
2018-Apr-21 08:31N 43°30' E 010°08'5 9.6
2018-Apr-21 08:00N 43°31' E 010°14'3 6.9
2018-Apr-21 07:31N 43°33' E 010°18'1 2.6
2018-Apr-21 06:59N 43°35' E 010°18'0 0.0
2018-Apr-21 06:29N 43°35' E 010°18'0 0.0
2018-Apr-21 05:59N 43°35' E 010°18'0 0.0
2018-Apr-21 05:29N 43°35' E 010°18'0 0.0
2018-Apr-21 04:59N 43°35' E 010°18'0 0.0
2018-Apr-21 04:30N 43°35' E 010°18'0 0.0
2018-Apr-21 03:56N 43°35' E 010°18'0 0.0
2018-Apr-21 03:29N 43°35' E 010°18'0 0.0
2018-Apr-21 02:56N 43°35' E 010°18'0 0.0
2018-Apr-21 02:30N 43°35' E 010°18'0 0.0
2018-Apr-21 02:00N 43°35' E 010°18'0 0.0
2018-Apr-21 01:26N 43°35' E 010°18'0 0.0
2018-Apr-21 00:59N 43°35' E 010°18'0 0.0
2018-Apr-21 00:30N 43°35' E 010°18'0 0.0
2018-Apr-21 00:00N 43°35' E 010°18'0 0.0
2018-Apr-20 23:30N 43°35' E 010°18'0 0.0
2018-Apr-20 23:00N 43°35' E 010°18'0 0.0
2018-Apr-20 22:29N 43°35' E 010°18'0 0.0
2018-Apr-20 22:00N 43°35' E 010°18'0 0.0
2018-Apr-20 21:24N 43°35' E 010°18'0 0.0
2018-Apr-20 21:00N 43°35' E 010°18'0 0.0
2018-Apr-20 20:23N 43°35' E 010°18'0 0.0
2018-Apr-20 20:00N 43°35' E 010°18'0 0.0
2018-Apr-20 19:29N 43°35' E 010°18'0 0.0
2018-Apr-20 18:56N 43°35' E 010°18'0 0.0
2018-Apr-20 18:30N 43°35' E 010°18'0 0.0
2018-Apr-20 18:00N 43°35' E 010°18'0 0.0
2018-Apr-20 17:30N 43°35' E 010°18'0 0.0
2018-Apr-20 16:56N 43°35' E 010°18'0 0.0
2018-Apr-20 16:27N 43°35' E 010°18'0 0.0
2018-Apr-20 16:00N 43°35' E 010°18'0 0.0
2018-Apr-20 15:29N 43°35' E 010°18'0 0.0
2018-Apr-20 14:59N 43°35' E 010°18'0 0.0
2018-Apr-20 14:29N 43°35' E 010°18'0 0.0
2018-Apr-20 13:59N 43°35' E 010°18'0 0.0
2018-Apr-20 13:27N 43°35' E 010°18'0 0.0
2018-Apr-20 13:00N 43°35' E 010°18'0 0.0
2018-Apr-20 12:27N 43°35' E 010°18'0 0.0
2018-Apr-20 11:59N 43°35' E 010°18'0 0.0
2018-Apr-20 11:23N 43°35' E 010°18'0 0.0
2018-Apr-20 11:00N 43°35' E 010°18'0 0.0
2018-Apr-20 10:29N 43°35' E 010°18'0 0.0
2018-Apr-20 09:57N 43°35' E 010°18'0 0.0
2018-Apr-20 09:30N 43°35' E 010°18'0 0.0
2018-Apr-20 08:54N 43°35' E 010°18'0 0.0
2018-Apr-20 08:29N 43°35' E 010°18'0 0.8
2018-Apr-20 08:01N 43°34' E 010°18'3 5.1
2018-Apr-20 07:31N 43°32' E 010°16'3 5.2
2018-Apr-20 07:01N 43°30' E 010°14'510.9
2018-Apr-20 06:30N 43°25' E 010°11'612.2
2018-Apr-20 06:01N 43°19' E 010°11'3 6.2
2018-Apr-20 05:30N 43°16' E 010°10'0 0.4
2018-Apr-20 05:00N 43°16' E 010°10'0 0.4
2018-Apr-20 04:30N 43°15' E 010°11'0 0.4
2018-Apr-20 04:00N 43°15' E 010°11'0 0.5
2018-Apr-20 03:30N 43°15' E 010°11'0 0.7
2018-Apr-20 03:00N 43°15' E 010°11'2 4.6
2018-Apr-20 02:30N 43°13' E 010°09'4 8.7
2018-Apr-20 02:01N 43°10' E 010°05'712.4
2018-Apr-20 01:29N 43°04' E 010°02'612.2
2018-Apr-20 01:00N 42°58' E 010°00'612.2
2018-Apr-20 00:31N 42°52' E 010°01'612.3
2018-Apr-20 00:00N 42°46' E 010°01'912.4
2018-Apr-19 23:18N 42°39' E 010°09'512.7
2018-Apr-19 22:53N 42°36' E 010°14'612.5
2018-Apr-19 22:23N 42°32' E 010°20'1512.6
2018-Apr-19 21:11N 42°21' E 010°35'16612.3
2018-Apr-19 07:41N 40°41' E 013°32'312.9
2018-Apr-19 07:28N 40°40' E 013°36'612.5
2018-Apr-19 07:00N 40°39' E 013°43'612.4
2018-Apr-19 06:31N 40°37' E 013°51'612.7
2018-Apr-19 06:00N 40°38' E 013°59'612.0
2018-Apr-19 05:30N 40°40' E 014°06'612.8
2018-Apr-19 05:00N 40°44' E 014°13'612.4
2018-Apr-19 04:30N 40°49' E 014°18'2 3.6
2018-Apr-19 03:59N 40°50' E 014°17'0 0.0
2018-Apr-19 03:29N 40°50' E 014°17'0 0.0
2018-Apr-19 02:59N 40°50' E 014°17'0 0.0
2018-Apr-19 02:29N 40°50' E 014°17'0 0.0
2018-Apr-19 01:59N 40°50' E 014°17'0 0.0
2018-Apr-19 01:29N 40°50' E 014°17'0 0.0
2018-Apr-19 00:59N 40°50' E 014°17'0 0.0
2018-Apr-19 00:29N 40°50' E 014°17'0 0.0
2018-Apr-18 23:59N 40°50' E 014°17'0 0.0
2018-Apr-18 23:29N 40°50' E 014°17'0 0.0
2018-Apr-18 22:59N 40°50' E 014°17'0 0.0
2018-Apr-18 22:29N 40°50' E 014°17'0 0.0
2018-Apr-18 21:59N 40°50' E 014°17'0 0.0
2018-Apr-18 21:29N 40°50' E 014°17'0 0.0
2018-Apr-18 20:59N 40°50' E 014°17'0 0.0
2018-Apr-18 20:29N 40°50' E 014°17'0 0.0
2018-Apr-18 19:59N 40°50' E 014°17'0 0.0
2018-Apr-18 19:29N 40°50' E 014°17'0 0.0
2018-Apr-18 18:59N 40°50' E 014°17'0 0.0
2018-Apr-18 18:26N 40°50' E 014°17'0 0.0
2018-Apr-18 17:59N 40°50' E 014°17'0 0.0
2018-Apr-18 17:29N 40°50' E 014°17'0 0.0
2018-Apr-18 16:50N 40°50' E 014°17'0 0.0
2018-Apr-18 16:29N 40°50' E 014°17'0 0.0
2018-Apr-18 15:53N 40°50' E 014°17'0 0.0
2018-Apr-18 15:23N 40°50' E 014°17'0 0.0
2018-Apr-18 14:53N 40°50' E 014°17'0 0.0
2018-Apr-18 14:23N 40°50' E 014°17'0 0.0
2018-Apr-18 13:53N 40°50' E 014°17'0 0.0
2018-Apr-18 13:29N 40°50' E 014°17'0 0.0
2018-Apr-18 12:59N 40°50' E 014°17'0 0.0
2018-Apr-18 12:26N 40°50' E 014°17'0 0.0
2018-Apr-18 11:59N 40°50' E 014°17'0 0.0
2018-Apr-18 11:26N 40°50' E 014°17'0 0.0
2018-Apr-18 10:56N 40°50' E 014°17'0 0.0
2018-Apr-18 10:29N 40°50' E 014°17'0 0.0
2018-Apr-18 09:59N 40°50' E 014°17'0 0.0
2018-Apr-18 09:29N 40°50' E 014°17'0 0.0
2018-Apr-18 08:59N 40°50' E 014°17'0 0.0
2018-Apr-18 08:29N 40°50' E 014°17'0 0.0
2018-Apr-18 07:56N 40°50' E 014°17'0 0.0
2018-Apr-18 07:29N 40°50' E 014°17'0 0.0
2018-Apr-18 06:59N 40°50' E 014°17'0 0.0
2018-Apr-18 06:29N 40°50' E 014°17'0 0.0
2018-Apr-18 05:59N 40°50' E 014°17'0 0.0
2018-Apr-18 05:29N 40°50' E 014°17'0 0.0
2018-Apr-18 05:00N 40°50' E 014°17'1 1.3
2018-Apr-18 04:30N 40°50' E 014°17'3 5.9
2018-Apr-18 04:00N 40°47' E 014°17'611.2
2018-Apr-18 03:30N 40°42' E 014°13'5 9.3
2018-Apr-18 03:00N 40°38' E 014°09'0 0.6
2018-Apr-18 02:30N 40°39' E 014°09'0 0.2
2018-Apr-18 02:00N 40°39' E 014°10'0 0.2
2018-Apr-18 01:30N 40°39' E 014°10'0 0.2
2018-Apr-18 01:00N 40°39' E 014°10'0 0.3
2018-Apr-18 00:30N 40°39' E 014°10'0 0.2
2018-Apr-18 00:00N 40°39' E 014°10'0 0.2
2018-Apr-17 23:30N 40°39' E 014°10'0 0.3
2018-Apr-17 23:00N 40°39' E 014°10'0 0.2
2018-Apr-17 22:30N 40°39' E 014°10'0 0.1
2018-Apr-17 22:00N 40°39' E 014°11'0 0.1
2018-Apr-17 21:30N 40°39' E 014°10'0 0.2
2018-Apr-17 21:00N 40°39' E 014°10'0 0.3
2018-Apr-17 20:30N 40°39' E 014°10'0 0.3
2018-Apr-17 20:00N 40°39' E 014°10'0 0.3
2018-Apr-17 19:30N 40°38' E 014°10'0 0.3
2018-Apr-17 19:00N 40°38' E 014°10'0 0.2
2018-Apr-17 18:30N 40°38' E 014°10'1 1.2
2018-Apr-17 18:00N 40°38' E 014°10'510.4
2018-Apr-17 17:30N 40°33' E 014°07'612.3
2018-Apr-17 17:00N 40°28' E 014°11'612.5
2018-Apr-17 16:30N 40°24' E 014°18'1 2.7
2018-Apr-17 16:00N 40°24' E 014°19'0 0.7
2018-Apr-17 15:26N 40°24' E 014°19'0 0.8
2018-Apr-17 14:48N 40°24' E 014°18'0 0.9
2018-Apr-17 14:30N 40°24' E 014°18'1 1.0
2018-Apr-17 14:00N 40°24' E 014°17'1 1.1
2018-Apr-17 13:30N 40°24' E 014°17'1 1.1
2018-Apr-17 13:00N 40°24' E 014°16'1 1.1
2018-Apr-17 12:30N 40°24' E 014°15'1 1.1
2018-Apr-17 12:00N 40°23' E 014°15'1 1.0
2018-Apr-17 11:30N 40°23' E 014°14'1 1.0
2018-Apr-17 11:00N 40°23' E 014°14'1 1.0
2018-Apr-17 10:30N 40°22' E 014°13'1 1.1
2018-Apr-17 10:00N 40°22' E 014°13'1 1.0
2018-Apr-17 09:30N 40°21' E 014°13'0 0.9
2018-Apr-17 08:59N 40°21' E 014°12'0 0.8
2018-Apr-17 08:30N 40°21' E 014°12'0 0.8
2018-Apr-17 08:00N 40°20' E 014°12'0 0.8
2018-Apr-17 07:30N 40°20' E 014°11'0 0.9
2018-Apr-17 07:00N 40°20' E 014°11'0 0.9
2018-Apr-17 06:30N 40°19' E 014°10'0 0.8
2018-Apr-17 06:00N 40°19' E 014°10'0 0.8
2018-Apr-17 05:30N 40°19' E 014°10'0 0.8
2018-Apr-17 05:00N 40°19' E 014°09'0 0.7
2018-Apr-17 04:30N 40°19' E 014°09'0 0.6
2018-Apr-17 04:00N 40°19' E 014°08'0 0.6
2018-Apr-17 03:30N 40°18' E 014°08'0 0.7
2018-Apr-17 02:59N 40°19' E 014°07'0 0.7
2018-Apr-17 02:30N 40°19' E 014°07'0 0.8
2018-Apr-17 02:00N 40°19' E 014°07'0 0.8
2018-Apr-17 01:30N 40°19' E 014°06'0 0.8
2018-Apr-17 01:00N 40°19' E 014°06'0 0.8
2018-Apr-17 00:30N 40°20' E 014°05'0 0.8
2018-Apr-17 00:00N 40°20' E 014°05'0 0.9
2018-Apr-16 23:30N 40°20' E 014°04'0 0.9
2018-Apr-16 23:00N 40°20' E 014°04'0 1.0
2018-Apr-16 22:30N 40°20' E 014°03'0 1.0
2018-Apr-16 22:00N 40°20' E 014°02'1 1.1
2018-Apr-16 21:30N 40°20' E 014°02'1 1.0
2018-Apr-16 20:41N 40°21' E 014°01'0 1.0
2018-Apr-16 20:28N 40°21' E 014°01'1 1.0
2018-Apr-16 19:58N 40°21' E 014°00'1 0.9
2018-Apr-16 18:58N 40°22' E 013°59'0 0.8
2018-Apr-16 18:23N 40°22' E 013°59'1 0.8
2018-Apr-16 17:00N 40°23' E 013°58'1 0.7
2018-Apr-16 15:55N 40°23' E 013°57'4 0.4
2018-Apr-16 05:31N 40°24' E 013°52'0 0.7
2018-Apr-16 05:23N 40°24' E 013°52'0 0.7
2018-Apr-16 04:59N 40°24' E 013°51'0 0.6
2018-Apr-16 04:30N 40°25' E 013°51'0 0.5
2018-Apr-16 04:00N 40°25' E 013°51'0 0.3
2018-Apr-16 03:30N 40°25' E 013°50'0 0.2
2018-Apr-16 02:59N 40°24' E 013°50'0 0.1
2018-Apr-16 02:30N 40°24' E 013°50'0 0.2
2018-Apr-16 02:00N 40°24' E 013°51'0 0.3
2018-Apr-16 01:28N 40°24' E 013°51'510.3
2018-Apr-16 01:00N 40°27' E 013°56'612.8
2018-Apr-16 00:30N 40°31' E 014°03'5 9.1
2018-Apr-15 23:56N 40°29' E 014°09'613.0
2018-Apr-15 23:30N 40°25' E 014°14'612.8
2018-Apr-15 23:00N 40°20' E 014°19'612.7
2018-Apr-15 22:30N 40°14' E 014°23'712.8
2018-Apr-15 21:59N 40°08' E 014°27'612.6
2018-Apr-15 21:28N 40°03' E 014°32'7513.1
2018-Apr-15 15:43N 38°60' E 015°25'713.8
2018-Apr-15 15:13N 38°54' E 015°30'513.3
2018-Apr-15 14:48N 38°49' E 015°33'413.1
2018-Apr-15 14:29N 38°46' E 015°36'612.7
2018-Apr-15 14:00N 38°41' E 015°41'612.3
2018-Apr-15 13:31N 38°36' E 015°45'612.0
2018-Apr-15 13:01N 38°31' E 015°49'510.8
2018-Apr-15 12:31N 38°27' E 015°53'1 1.0
2018-Apr-15 11:50N 38°27' E 015°54'0 0.0
2018-Apr-15 11:26N 38°27' E 015°54'0 0.0
2018-Apr-15 09:20N 38°27' E 015°54'0 0.0
2018-Apr-15 08:44N 38°27' E 015°54'0 0.0
2018-Apr-15 06:14N 38°27' E 015°54'0 0.0
2018-Apr-15 05:56N 38°27' E 015°54'0 0.0
2018-Apr-14 18:08N 38°27' E 015°54'0 0.2
2018-Apr-14 17:56N 38°27' E 015°54'0 0.0
2018-Apr-14 17:26N 38°27' E 015°54'0 0.0
2018-Apr-14 16:56N 38°27' E 015°54'0 0.0
2018-Apr-14 16:29N 38°27' E 015°54'3 3.5
2018-Apr-14 15:35N 38°27' E 015°50'0 1.9
2018-Apr-14 15:30N 38°27' E 015°50'1 2.4
2018-Apr-14 14:59N 38°26' E 015°49'4 8.3
2018-Apr-14 14:29N 38°26' E 015°44'816.7
2018-Apr-14 14:00N 38°24' E 015°34'917.1
2018-Apr-14 13:30N 38°22' E 015°23'917.3
2018-Apr-14 13:00N 38°20' E 015°12'917.6
2018-Apr-14 12:30N 38°19' E 015°01'917.3
2018-Apr-14 12:00N 38°19' E 014°50'917.1
2018-Apr-14 11:29N 38°20' E 014°39'816.4
2018-Apr-14 11:00N 38°21' E 014°29'916.9
2018-Apr-14 10:27N 38°21' E 014°17'817.6
2018-Apr-14 09:59N 38°23' E 014°07'1217.7
2018-Apr-14 09:18N 38°24' E 013°52'718.1
2018-Apr-14 08:53N 38°25' E 013°42'718.2
2018-Apr-14 08:30N 38°25' E 013°33'918.3
2018-Apr-14 08:01N 38°26' E 013°22'918.2
2018-Apr-14 07:30N 38°26' E 013°10'917.7
2018-Apr-14 07:00N 38°27' E 012°59'918.5
2018-Apr-14 06:30N 38°28' E 012°47'918.7
2018-Apr-14 06:00N 38°28' E 012°35'918.5
2018-Apr-14 05:30N 38°28' E 012°23'918.2
2018-Apr-14 05:01N 38°29' E 012°12'918.6
2018-Apr-14 04:30N 38°29' E 011°60'11418.9
2018-Apr-13 22:29N 38°34' E 009°35'3518.1
2018-Apr-13 20:32N 38°35' E 008°49'018.7
2018-Apr-13 20:30N 38°35' E 008°49'1018.6
2018-Apr-13 19:59N 38°36' E 008°36'  
Track history (hours):
 
Tides and Currents Weather Stations Pressure Air Temp Water Temp Dewpoint Dewpoint Depression Visibility Wind Speed Wind Dir Waves Ship Positions

Sealand New York

Last reported at 2018-Apr-23 11:30 UTC. Time now 2018-Apr-23 11:48 UTC.
Position N 43°11' E 007°21'.

Length 304 m; draft 12.3 m.

Type: Ship (hazmat cat A). MMSI: 229544000.

Date/timePositionNaut miles runAvg speedWind from/ knotsBaromVisibWave heightAir tempDewpointWater temp
2018-Apr-23 11:30N 43°11' E 007°21'1018.9
2018-Apr-23 10:59N 43°18' E 007°32'1018.9
2018-Apr-23 10:28N 43°24' E 007°42'919.2
2018-Apr-23 10:00N 43°31' E 007°50'1019.4
2018-Apr-23 09:30N 43°38' E 007°59'1020.2
2018-Apr-23 09:00N 43°46' E 008°08'1020.3
2018-Apr-23 08:30N 43°53' E 008°17'1020.2
2018-Apr-23 08:00N 44°01' E 008°26'1020.2
2018-Apr-23 07:30N 44°09' E 008°35'1019.5
2018-Apr-23 07:00N 44°18' E 008°40'815.4
2018-Apr-23 06:30N 44°25' E 008°45'1 2.8
2018-Apr-23 05:59N 44°25' E 008°47'0 0.0
2018-Apr-23 05:29N 44°25' E 008°47'0 0.0
2018-Apr-23 04:59N 44°25' E 008°47'0 0.0
2018-Apr-23 04:29N 44°25' E 008°47'0 0.0
2018-Apr-23 03:59N 44°25' E 008°47'0 0.0
2018-Apr-23 03:29N 44°25' E 008°47'0 0.0
2018-Apr-23 02:59N 44°25' E 008°47'0 0.0
2018-Apr-23 02:29N 44°25' E 008°47'0 0.0
2018-Apr-23 01:59N 44°25' E 008°47'0 0.0
2018-Apr-23 01:29N 44°25' E 008°47'0 0.0
2018-Apr-23 00:59N 44°25' E 008°47'0 0.0
2018-Apr-23 00:29N 44°25' E 008°47'0 0.0
2018-Apr-22 23:59N 44°25' E 008°47'0 0.0
2018-Apr-22 23:29N 44°25' E 008°47'0 0.0
2018-Apr-22 22:59N 44°25' E 008°47'0 0.0
2018-Apr-22 22:29N 44°25' E 008°47'0 0.0
2018-Apr-22 21:59N 44°25' E 008°47'0 0.0
2018-Apr-22 21:29N 44°25' E 008°47'0 0.0
2018-Apr-22 20:59N 44°25' E 008°47'0 0.0
2018-Apr-22 20:29N 44°25' E 008°47'0 0.0
2018-Apr-22 19:59N 44°25' E 008°47'0 0.0
2018-Apr-22 19:29N 44°25' E 008°47'0 0.0
2018-Apr-22 18:59N 44°25' E 008°47'0 0.0
2018-Apr-22 18:26N 44°25' E 008°47'0 0.0
2018-Apr-22 17:59N 44°25' E 008°47'0 0.0
2018-Apr-22 17:29N 44°25' E 008°47'0 0.0
2018-Apr-22 16:59N 44°25' E 008°47'0 0.0
2018-Apr-22 16:29N 44°25' E 008°47'0 0.0
2018-Apr-22 15:59N 44°25' E 008°47'0 0.0
2018-Apr-22 15:29N 44°25' E 008°47'0 0.0
2018-Apr-22 14:59N 44°25' E 008°47'0 0.0
2018-Apr-22 14:29N 44°25' E 008°47'0 0.0
2018-Apr-22 13:59N 44°25' E 008°47'0 0.0
2018-Apr-22 13:29N 44°25' E 008°47'0 0.0
2018-Apr-22 12:59N 44°25' E 008°47'0 0.0
2018-Apr-22 12:29N 44°25' E 008°47'0 0.0
2018-Apr-22 11:59N 44°25' E 008°47'0 0.0
2018-Apr-22 11:29N 44°25' E 008°47'0 0.0
2018-Apr-22 10:59N 44°25' E 008°47'0 0.0
2018-Apr-22 10:29N 44°25' E 008°47'0 0.0
2018-Apr-22 09:59N 44°25' E 008°47'0 0.0
2018-Apr-22 09:29N 44°25' E 008°47'0 0.0
2018-Apr-22 08:59N 44°25' E 008°47'0 0.0
2018-Apr-22 08:29N 44°25' E 008°47'0 0.2
2018-Apr-22 08:00N 44°25' E 008°47'2 4.2
2018-Apr-22 07:30N 44°24' E 008°45'2 5.0
2018-Apr-22 07:00N 44°22' E 008°43'1 2.9
2018-Apr-22 06:30N 44°20' E 008°42'0 0.5
2018-Apr-22 06:00N 44°21' E 008°42'0 0.4
2018-Apr-22 05:30N 44°21' E 008°43'0 0.4
2018-Apr-22 05:00N 44°21' E 008°43'3 5.4
2018-Apr-22 04:30N 44°18' E 008°43'510.6
2018-Apr-22 04:00N 44°13' E 008°41'3 5.0
2018-Apr-22 03:30N 44°11' E 008°38'1 1.1
2018-Apr-22 03:00N 44°11' E 008°39'1 1.1
2018-Apr-22 02:30N 44°11' E 008°40'0 0.9
2018-Apr-22 02:00N 44°12' E 008°41'0 0.9
2018-Apr-22 01:30N 44°12' E 008°41'0 0.9
2018-Apr-22 01:00N 44°12' E 008°42'0 0.9
2018-Apr-22 00:30N 44°12' E 008°42'1 1.0
2018-Apr-22 00:00N 44°12' E 008°43'0 0.7
2018-Apr-21 23:30N 44°12' E 008°43'0 0.7
2018-Apr-21 23:00N 44°12' E 008°44'0 0.6
2018-Apr-21 22:30N 44°13' E 008°44'0 0.6
2018-Apr-21 22:00N 44°13' E 008°45'0 0.6
2018-Apr-21 21:30N 44°13' E 008°45'0 0.7
2018-Apr-21 21:00N 44°13' E 008°46'0 0.7
2018-Apr-21 20:30N 44°13' E 008°46'0 0.7
2018-Apr-21 20:00N 44°13' E 008°46'0 0.7
2018-Apr-21 19:30N 44°13' E 008°47'0 0.7
2018-Apr-21 19:00N 44°12' E 008°47'0 0.8
2018-Apr-21 18:30N 44°12' E 008°48'0 0.7
2018-Apr-21 18:01N 44°12' E 008°48'0 0.6
2018-Apr-21 17:31N 44°12' E 008°49'0 0.6
2018-Apr-21 17:01N 44°12' E 008°49'0 0.5
2018-Apr-21 16:30N 44°12' E 008°50'0 0.2
2018-Apr-21 16:01N 44°12' E 008°50'0 0.4
2018-Apr-21 15:30N 44°12' E 008°49'0 0.4
2018-Apr-21 15:00N 44°12' E 008°49'1 1.9
2018-Apr-21 14:31N 44°13' E 008°50'611.9
2018-Apr-21 14:00N 44°09' E 008°56'612.6
2018-Apr-21 13:30N 44°05' E 009°03'612.6
2018-Apr-21 13:00N 44°00' E 009°09'612.2
2018-Apr-21 12:30N 43°56' E 009°14'612.3
2018-Apr-21 12:01N 43°51' E 009°20'612.2
2018-Apr-21 11:30N 43°47' E 009°26'611.9
2018-Apr-21 11:01N 43°43' E 009°32'612.0
2018-Apr-21 10:31N 43°39' E 009°38'612.1
2018-Apr-21 10:01N 43°34' E 009°44'611.8
2018-Apr-21 09:30N 43°32' E 009°51'611.9
2018-Apr-21 09:00N 43°30' E 009°59'612.4
2018-Apr-21 08:31N 43°30' E 010°08'5 9.6
2018-Apr-21 08:00N 43°31' E 010°14'3 6.9
2018-Apr-21 07:31N 43°33' E 010°18'1 2.6
2018-Apr-21 06:59N 43°35' E 010°18'0 0.0
2018-Apr-21 06:29N 43°35' E 010°18'0 0.0
2018-Apr-21 05:59N 43°35' E 010°18'0 0.0
2018-Apr-21 05:29N 43°35' E 010°18'0 0.0
2018-Apr-21 04:59N 43°35' E 010°18'0 0.0
2018-Apr-21 04:30N 43°35' E 010°18'0 0.0
2018-Apr-21 03:56N 43°35' E 010°18'0 0.0
2018-Apr-21 03:29N 43°35' E 010°18'0 0.0
2018-Apr-21 02:56N 43°35' E 010°18'0 0.0
2018-Apr-21 02:30N 43°35' E 010°18'0 0.0
2018-Apr-21 02:00N 43°35' E 010°18'0 0.0
2018-Apr-21 01:26N 43°35' E 010°18'0 0.0
2018-Apr-21 00:59N 43°35' E 010°18'0 0.0
2018-Apr-21 00:30N 43°35' E 010°18'0 0.0
2018-Apr-21 00:00N 43°35' E 010°18'0 0.0
2018-Apr-20 23:30N 43°35' E 010°18'0 0.0
2018-Apr-20 23:00N 43°35' E 010°18'0 0.0
2018-Apr-20 22:29N 43°35' E 010°18'0 0.0
2018-Apr-20 22:00N 43°35' E 010°18'0 0.0
2018-Apr-20 21:24N 43°35' E 010°18'0 0.0
2018-Apr-20 21:00N 43°35' E 010°18'0 0.0
2018-Apr-20 20:23N 43°35' E 010°18'0 0.0
2018-Apr-20 20:00N 43°35' E 010°18'0 0.0
2018-Apr-20 19:29N 43°35' E 010°18'0 0.0
2018-Apr-20 18:56N 43°35' E 010°18'0 0.0
2018-Apr-20 18:30N 43°35' E 010°18'0 0.0
2018-Apr-20 18:00N 43°35' E 010°18'0 0.0
2018-Apr-20 17:30N 43°35' E 010°18'0 0.0
2018-Apr-20 16:56N 43°35' E 010°18'0 0.0
2018-Apr-20 16:27N 43°35' E 010°18'0 0.0
2018-Apr-20 16:00N 43°35' E 010°18'0 0.0
2018-Apr-20 15:29N 43°35' E 010°18'0 0.0
2018-Apr-20 14:59N 43°35' E 010°18'0 0.0
2018-Apr-20 14:29N 43°35' E 010°18'0 0.0
2018-Apr-20 13:59N 43°35' E 010°18'0 0.0
2018-Apr-20 13:27N 43°35' E 010°18'0 0.0
2018-Apr-20 13:00N 43°35' E 010°18'0 0.0
2018-Apr-20 12:27N 43°35' E 010°18'0 0.0
2018-Apr-20 11:59N 43°35' E 010°18'0 0.0
2018-Apr-20 11:23N 43°35' E 010°18'0 0.0
2018-Apr-20 11:00N 43°35' E 010°18'0 0.0
2018-Apr-20 10:29N 43°35' E 010°18'0 0.0
2018-Apr-20 09:57N 43°35' E 010°18'0 0.0
2018-Apr-20 09:30N 43°35' E 010°18'0 0.0
2018-Apr-20 08:54N 43°35' E 010°18'0 0.0
2018-Apr-20 08:29N 43°35' E 010°18'0 0.8
2018-Apr-20 08:01N 43°34' E 010°18'3 5.1
2018-Apr-20 07:31N 43°32' E 010°16'3 5.2
2018-Apr-20 07:01N 43°30' E 010°14'510.9
2018-Apr-20 06:30N 43°25' E 010°11'612.2
2018-Apr-20 06:01N 43°19' E 010°11'3 6.2
2018-Apr-20 05:30N 43°16' E 010°10'0 0.4
2018-Apr-20 05:00N 43°16' E 010°10'0 0.4
2018-Apr-20 04:30N 43°15' E 010°11'0 0.4
2018-Apr-20 04:00N 43°15' E 010°11'0 0.5
2018-Apr-20 03:30N 43°15' E 010°11'0 0.7
2018-Apr-20 03:00N 43°15' E 010°11'2 4.6
2018-Apr-20 02:30N 43°13' E 010°09'4 8.7
2018-Apr-20 02:01N 43°10' E 010°05'712.4
2018-Apr-20 01:29N 43°04' E 010°02'612.2
2018-Apr-20 01:00N 42°58' E 010°00'612.2
2018-Apr-20 00:31N 42°52' E 010°01'612.3
2018-Apr-20 00:00N 42°46' E 010°01'912.4
2018-Apr-19 23:18N 42°39' E 010°09'512.7
2018-Apr-19 22:53N 42°36' E 010°14'612.5
2018-Apr-19 22:23N 42°32' E 010°20'1512.6
2018-Apr-19 21:11N 42°21' E 010°35'16612.3
2018-Apr-19 07:41N 40°41' E 013°32'312.9
2018-Apr-19 07:28N 40°40' E 013°36'612.5
2018-Apr-19 07:00N 40°39' E 013°43'612.4
2018-Apr-19 06:31N 40°37' E 013°51'612.7
2018-Apr-19 06:00N 40°38' E 013°59'612.0
2018-Apr-19 05:30N 40°40' E 014°06'612.8
2018-Apr-19 05:00N 40°44' E 014°13'612.4
2018-Apr-19 04:30N 40°49' E 014°18'2 3.6
2018-Apr-19 03:59N 40°50' E 014°17'0 0.0
2018-Apr-19 03:29N 40°50' E 014°17'0 0.0
2018-Apr-19 02:59N 40°50' E 014°17'0 0.0
2018-Apr-19 02:29N 40°50' E 014°17'0 0.0
2018-Apr-19 01:59N 40°50' E 014°17'0 0.0
2018-Apr-19 01:29N 40°50' E 014°17'0 0.0
2018-Apr-19 00:59N 40°50' E 014°17'0 0.0
2018-Apr-19 00:29N 40°50' E 014°17'0 0.0
2018-Apr-18 23:59N 40°50' E 014°17'0 0.0
2018-Apr-18 23:29N 40°50' E 014°17'0 0.0
2018-Apr-18 22:59N 40°50' E 014°17'0 0.0
2018-Apr-18 22:29N 40°50' E 014°17'0 0.0
2018-Apr-18 21:59N 40°50' E 014°17'0 0.0
2018-Apr-18 21:29N 40°50' E 014°17'0 0.0
2018-Apr-18 20:59N 40°50' E 014°17'0 0.0
2018-Apr-18 20:29N 40°50' E 014°17'0 0.0
2018-Apr-18 19:59N 40°50' E 014°17'0 0.0
2018-Apr-18 19:29N 40°50' E 014°17'0 0.0
2018-Apr-18 18:59N 40°50' E 014°17'0 0.0
2018-Apr-18 18:26N 40°50' E 014°17'0 0.0
2018-Apr-18 17:59N 40°50' E 014°17'0 0.0
2018-Apr-18 17:29N 40°50' E 014°17'0 0.0
2018-Apr-18 16:50N 40°50' E 014°17'0 0.0
2018-Apr-18 16:29N 40°50' E 014°17'0 0.0
2018-Apr-18 15:53N 40°50' E 014°17'0 0.0
2018-Apr-18 15:23N 40°50' E 014°17'0 0.0
2018-Apr-18 14:53N 40°50' E 014°17'0 0.0
2018-Apr-18 14:23N 40°50' E 014°17'0 0.0
2018-Apr-18 13:53N 40°50' E 014°17'0 0.0
2018-Apr-18 13:29N 40°50' E 014°17'0 0.0
2018-Apr-18 12:59N 40°50' E 014°17'0 0.0
2018-Apr-18 12:26N 40°50' E 014°17'0 0.0
2018-Apr-18 11:59N 40°50' E 014°17'0 0.0
2018-Apr-18 11:26N 40°50' E 014°17'0 0.0
2018-Apr-18 10:56N 40°50' E 014°17'0 0.0
2018-Apr-18 10:29N 40°50' E 014°17'0 0.0
2018-Apr-18 09:59N 40°50' E 014°17'0 0.0
2018-Apr-18 09:29N 40°50' E 014°17'0 0.0
2018-Apr-18 08:59N 40°50' E 014°17'0 0.0
2018-Apr-18 08:29N 40°50' E 014°17'0 0.0
2018-Apr-18 07:56N 40°50' E 014°17'0 0.0
2018-Apr-18 07:29N 40°50' E 014°17'0 0.0
2018-Apr-18 06:59N 40°50' E 014°17'0 0.0
2018-Apr-18 06:29N 40°50' E 014°17'0 0.0
2018-Apr-18 05:59N 40°50' E 014°17'0 0.0
2018-Apr-18 05:29N 40°50' E 014°17'0 0.0
2018-Apr-18 05:00N 40°50' E 014°17'1 1.3
2018-Apr-18 04:30N 40°50' E 014°17'3 5.9
2018-Apr-18 04:00N 40°47' E 014°17'611.2
2018-Apr-18 03:30N 40°42' E 014°13'5 9.3
2018-Apr-18 03:00N 40°38' E 014°09'0 0.6
2018-Apr-18 02:30N 40°39' E 014°09'0 0.2
2018-Apr-18 02:00N 40°39' E 014°10'0 0.2
2018-Apr-18 01:30N 40°39' E 014°10'0 0.2
2018-Apr-18 01:00N 40°39' E 014°10'0 0.3
2018-Apr-18 00:30N 40°39' E 014°10'0 0.2
2018-Apr-18 00:00N 40°39' E 014°10'0 0.2
2018-Apr-17 23:30N 40°39' E 014°10'0 0.3
2018-Apr-17 23:00N 40°39' E 014°10'0 0.2
2018-Apr-17 22:30N 40°39' E 014°10'0 0.1
2018-Apr-17 22:00N 40°39' E 014°11'0 0.1
2018-Apr-17 21:30N 40°39' E 014°10'0 0.2
2018-Apr-17 21:00N 40°39' E 014°10'0 0.3
2018-Apr-17 20:30N 40°39' E 014°10'0 0.3
2018-Apr-17 20:00N 40°39' E 014°10'0 0.3
2018-Apr-17 19:30N 40°38' E 014°10'0 0.3
2018-Apr-17 19:00N 40°38' E 014°10'0 0.2
2018-Apr-17 18:30N 40°38' E 014°10'1 1.2
2018-Apr-17 18:00N 40°38' E 014°10'510.4
2018-Apr-17 17:30N 40°33' E 014°07'612.3
2018-Apr-17 17:00N 40°28' E 014°11'612.5
2018-Apr-17 16:30N 40°24' E 014°18'1 2.7
2018-Apr-17 16:00N 40°24' E 014°19'0 0.7
2018-Apr-17 15:26N 40°24' E 014°19'0 0.8
2018-Apr-17 14:48N 40°24' E 014°18'0 0.9
2018-Apr-17 14:30N 40°24' E 014°18'1 1.0
2018-Apr-17 14:00N 40°24' E 014°17'1 1.1
2018-Apr-17 13:30N 40°24' E 014°17'1 1.1
2018-Apr-17 13:00N 40°24' E 014°16'1 1.1
2018-Apr-17 12:30N 40°24' E 014°15'1 1.1
2018-Apr-17 12:00N 40°23' E 014°15'1 1.0
2018-Apr-17 11:30N 40°23' E 014°14'1 1.0
2018-Apr-17 11:00N 40°23' E 014°14'1 1.0
2018-Apr-17 10:30N 40°22' E 014°13'1 1.1
2018-Apr-17 10:00N 40°22' E 014°13'1 1.0
2018-Apr-17 09:30N 40°21' E 014°13'0 0.9
2018-Apr-17 08:59N 40°21' E 014°12'0 0.8
2018-Apr-17 08:30N 40°21' E 014°12'0 0.8
2018-Apr-17 08:00N 40°20' E 014°12'0 0.8
2018-Apr-17 07:30N 40°20' E 014°11'0 0.9
2018-Apr-17 07:00N 40°20' E 014°11'0 0.9
2018-Apr-17 06:30N 40°19' E 014°10'0 0.8
2018-Apr-17 06:00N 40°19' E 014°10'0 0.8
2018-Apr-17 05:30N 40°19' E 014°10'0 0.8
2018-Apr-17 05:00N 40°19' E 014°09'0 0.7
2018-Apr-17 04:30N 40°19' E 014°09'0 0.6
2018-Apr-17 04:00N 40°19' E 014°08'0 0.6
2018-Apr-17 03:30N 40°18' E 014°08'0 0.7
2018-Apr-17 02:59N 40°19' E 014°07'0 0.7
2018-Apr-17 02:30N 40°19' E 014°07'0 0.8
2018-Apr-17 02:00N 40°19' E 014°07'0 0.8
2018-Apr-17 01:30N 40°19' E 014°06'0 0.8
2018-Apr-17 01:00N 40°19' E 014°06'0 0.8
2018-Apr-17 00:30N 40°20' E 014°05'0 0.8
2018-Apr-17 00:00N 40°20' E 014°05'0 0.9
2018-Apr-16 23:30N 40°20' E 014°04'0 0.9
2018-Apr-16 23:00N 40°20' E 014°04'0 1.0
2018-Apr-16 22:30N 40°20' E 014°03'0 1.0
2018-Apr-16 22:00N 40°20' E 014°02'1 1.1
2018-Apr-16 21:30N 40°20' E 014°02'1 1.0
2018-Apr-16 20:41N 40°21' E 014°01'0 1.0
2018-Apr-16 20:28N 40°21' E 014°01'1 1.0
2018-Apr-16 19:58N 40°21' E 014°00'1 0.9
2018-Apr-16 18:58N 40°22' E 013°59'0 0.8
2018-Apr-16 18:23N 40°22' E 013°59'1 0.8
2018-Apr-16 17:00N 40°23' E 013°58'1 0.7
2018-Apr-16 15:55N 40°23' E 013°57'4 0.4
2018-Apr-16 05:31N 40°24' E 013°52'0 0.7
2018-Apr-16 05:23N 40°24' E 013°52'0 0.7
2018-Apr-16 04:59N 40°24' E 013°51'0 0.6
2018-Apr-16 04:30N 40°25' E 013°51'0 0.5
2018-Apr-16 04:00N 40°25' E 013°51'0 0.3
2018-Apr-16 03:30N 40°25' E 013°50'0 0.2
2018-Apr-16 02:59N 40°24' E 013°50'0 0.1
2018-Apr-16 02:30N 40°24' E 013°50'0 0.2
2018-Apr-16 02:00N 40°24' E 013°51'0 0.3
2018-Apr-16 01:28N 40°24' E 013°51'510.3
2018-Apr-16 01:00N 40°27' E 013°56'612.8
2018-Apr-16 00:30N 40°31' E 014°03'5 9.1
2018-Apr-15 23:56N 40°29' E 014°09'613.0
2018-Apr-15 23:30N 40°25' E 014°14'612.8
2018-Apr-15 23:00N 40°20' E 014°19'612.7
2018-Apr-15 22:30N 40°14' E 014°23'712.8
2018-Apr-15 21:59N 40°08' E 014°27'612.6
2018-Apr-15 21:28N 40°03' E 014°32'7513.1
2018-Apr-15 15:43N 38°60' E 015°25'713.8
2018-Apr-15 15:13N 38°54' E 015°30'513.3
2018-Apr-15 14:48N 38°49' E 015°33'413.1
2018-Apr-15 14:29N 38°46' E 015°36'612.7
2018-Apr-15 14:00N 38°41' E 015°41'612.3
2018-Apr-15 13:31N 38°36' E 015°45'612.0
2018-Apr-15 13:01N 38°31' E 015°49'510.8
2018-Apr-15 12:31N 38°27' E 015°53'1 1.0
2018-Apr-15 11:50N 38°27' E 015°54'0 0.0
2018-Apr-15 11:26N 38°27' E 015°54'0 0.0
2018-Apr-15 09:20N 38°27' E 015°54'0 0.0
2018-Apr-15 08:44N 38°27' E 015°54'0 0.0
2018-Apr-15 06:14N 38°27' E 015°54'0 0.0
2018-Apr-15 05:56N 38°27' E 015°54'0 0.0
2018-Apr-14 18:08N 38°27' E 015°54'0 0.2
2018-Apr-14 17:56N 38°27' E 015°54'0 0.0
2018-Apr-14 17:26N 38°27' E 015°54'0 0.0
2018-Apr-14 16:56N 38°27' E 015°54'0 0.0
2018-Apr-14 16:29N 38°27' E 015°54'3 3.5
2018-Apr-14 15:35N 38°27' E 015°50'0 1.9
2018-Apr-14 15:30N 38°27' E 015°50'1 2.4
2018-Apr-14 14:59N 38°26' E 015°49'4 8.3
2018-Apr-14 14:29N 38°26' E 015°44'816.7
2018-Apr-14 14:00N 38°24' E 015°34'917.1
2018-Apr-14 13:30N 38°22' E 015°23'917.3
2018-Apr-14 13:00N 38°20' E 015°12'917.6
2018-Apr-14 12:30N 38°19' E 015°01'917.3
2018-Apr-14 12:00N 38°19' E 014°50'917.1
2018-Apr-14 11:29N 38°20' E 014°39'816.4
2018-Apr-14 11:00N 38°21' E 014°29'916.9
2018-Apr-14 10:27N 38°21' E 014°17'817.6
2018-Apr-14 09:59N 38°23' E 014°07'1217.7
2018-Apr-14 09:18N 38°24' E 013°52'718.1
2018-Apr-14 08:53N 38°25' E 013°42'718.2
2018-Apr-14 08:30N 38°25' E 013°33'918.3
2018-Apr-14 08:01N 38°26' E 013°22'918.2
2018-Apr-14 07:30N 38°26' E 013°10'917.7
2018-Apr-14 07:00N 38°27' E 012°59'918.5
2018-Apr-14 06:30N 38°28' E 012°47'918.7
2018-Apr-14 06:00N 38°28' E 012°35'918.5
2018-Apr-14 05:30N 38°28' E 012°23'918.2
2018-Apr-14 05:01N 38°29' E 012°12'918.6
2018-Apr-14 04:30N 38°29' E 011°60'11418.9
2018-Apr-13 22:29N 38°34' E 009°35'3518.1
2018-Apr-13 20:32N 38°35' E 008°49'018.7
2018-Apr-13 20:30N 38°35' E 008°49'1018.6
2018-Apr-13 19:59N 38°36' E 008°36'  

Dump ship's entire track history